Aviation Digital Data Service (ADDS)

Output produced by METARs form (0156 UTC 28 February 2015)
found at http://aviationweather.gov/adds/metars/
 
KLAN 272340Z 2800/2824 25009KT P6SM SCT040 
     FM280400 21005KT P6SM SKC